createdAt,value
2022-12-11T00:00:22.700Z,-1.15
2022-12-11T00:03:15.442Z,-1.16
2022-12-11T00:05:43.773Z,-1.17
2022-12-11T00:08:12.073Z,-1.19
2022-12-11T00:10:38.944Z,-1.18
2022-12-11T00:13:06.016Z,-1.18
2022-12-11T00:15:32.850Z,-1.20
2022-12-11T00:18:00.064Z,-1.19
2022-12-11T00:20:27.225Z,-1.19
2022-12-11T00:22:54.403Z,-1.20
2022-12-11T00:25:21.247Z,-1.20
2022-12-11T00:27:48.396Z,-1.19
2022-12-11T00:30:15.338Z,-1.20
2022-12-11T00:32:43.212Z,-1.22
2022-12-11T00:35:10.807Z,-1.22
2022-12-11T00:37:38.165Z,-1.24
2022-12-11T00:40:05.481Z,-1.24
2022-12-11T00:42:32.565Z,-1.24
2022-12-11T00:44:59.312Z,-1.24
2022-12-11T00:47:26.422Z,-1.23
2022-12-11T00:49:53.276Z,-1.26
2022-12-11T00:52:20.425Z,-1.25
2022-12-11T00:54:47.283Z,-1.25
2022-12-11T00:57:14.422Z,-1.25
2022-12-11T00:59:41.249Z,-1.24
2022-12-11T01:02:08.435Z,-1.24
2022-12-11T01:04:36.887Z,-1.22
2022-12-11T01:07:03.985Z,-1.22
2022-12-11T01:09:49.390Z,-1.24
2022-12-11T01:12:16.552Z,-1.23
2022-12-11T01:14:43.349Z,-1.23
2022-12-11T01:17:11.382Z,-1.24
2022-12-11T01:19:38.309Z,-1.23
2022-12-11T01:22:05.488Z,-1.23
2022-12-11T01:24:32.325Z,-1.27
2022-12-11T01:26:59.404Z,-1.25
2022-12-11T01:29:26.256Z,-1.24
2022-12-11T01:31:53.350Z,-1.22
2022-12-11T01:34:20.172Z,-1.20
2022-12-11T01:36:47.188Z,-1.20
2022-12-11T01:39:14.032Z,-1.18
2022-12-11T01:41:41.176Z,-1.17
2022-12-11T01:44:27.896Z,-1.18
2022-12-11T01:46:55.192Z,-1.18
2022-12-11T01:49:27.165Z,-1.19
2022-12-11T01:52:16.342Z,-1.24
2022-12-11T01:54:43.604Z,-1.21
2022-12-11T01:57:13.418Z,-1.26
2022-12-11T01:59:43.578Z,-1.30
2022-12-11T02:02:26.649Z,-1.32
2022-12-11T02:04:53.667Z,-1.36
2022-12-11T02:07:20.908Z,-1.35
2022-12-11T02:09:48.628Z,-1.36
2022-12-11T02:12:26.468Z,-1.37
2022-12-11T02:14:59.145Z,-1.40
2022-12-11T02:18:04.821Z,-1.45
2022-12-11T02:20:41.335Z,-1.47
2022-12-11T02:23:32.701Z,-1.48
2022-12-11T02:26:21.281Z,-1.49
2022-12-11T02:28:54.496Z,-1.51
2022-12-11T02:31:38.363Z,-1.52
2022-12-11T02:34:29.421Z,-1.53
2022-12-11T02:37:03.157Z,-1.53
2022-12-11T02:39:33.501Z,-1.52
2022-12-11T02:42:02.098Z,-1.50
2022-12-11T02:44:33.566Z,-1.50
2022-12-11T02:47:03.388Z,-1.52
2022-12-11T02:49:32.524Z,-1.50
2022-12-11T02:52:02.868Z,-1.50
2022-12-11T02:54:33.423Z,-1.50
2022-12-11T02:57:17.295Z,-1.50
2022-12-11T02:59:46.657Z,-1.52
2022-12-11T03:02:14.510Z,-1.55
2022-12-11T03:04:42.929Z,-1.54
2022-12-11T03:07:17.289Z,-1.55
2022-12-11T03:09:46.637Z,-1.55
2022-12-11T03:12:17.440Z,-1.57
2022-12-11T03:14:45.291Z,-1.55
2022-12-11T03:17:48.946Z,-1.58
2022-12-11T03:20:24.872Z,-1.56
2022-12-11T03:23:14.844Z,-1.57
2022-12-11T03:25:51.803Z,-1.57
2022-12-11T03:28:36.074Z,-1.56
2022-12-11T03:31:09.840Z,-1.57
2022-12-11T03:33:42.226Z,-1.58
2022-12-11T03:36:23.849Z,-1.60
2022-12-11T03:38:56.218Z,-1.59
2022-12-11T03:41:26.258Z,-1.59
2022-12-11T03:43:57.188Z,-1.61
2022-12-11T03:49:26.776Z,-1.63
2022-12-11T03:51:56.979Z,-1.63
2022-12-11T03:54:24.908Z,-1.66
2022-12-11T03:56:55.965Z,-1.66
2022-12-11T03:59:22.907Z,-1.68
2022-12-11T04:01:50.584Z,-1.71
2022-12-11T04:04:17.503Z,-1.73
2022-12-11T04:06:44.778Z,-1.72
2022-12-11T04:09:11.641Z,-1.71
2022-12-11T04:11:39.667Z,-1.70
2022-12-11T04:14:28.282Z,-1.69
2022-12-11T04:16:55.496Z,-1.72
2022-12-11T04:19:42.229Z,-1.73
2022-12-11T04:22:30.501Z,-1.75
2022-12-11T04:24:57.389Z,-1.75
2022-12-11T04:27:43.634Z,-1.76
2022-12-11T04:30:15.747Z,-1.76
2022-12-11T04:32:43.322Z,-1.76
2022-12-11T04:35:11.629Z,-1.74
2022-12-11T04:37:39.282Z,-1.74
2022-12-11T04:40:09.352Z,-1.75
2022-12-11T04:42:36.525Z,-1.75
2022-12-11T04:45:04.900Z,-1.76
2022-12-11T04:47:32.317Z,-1.77
2022-12-11T04:49:59.096Z,-1.77
2022-12-11T04:52:26.187Z,-1.77
2022-12-11T04:54:52.969Z,-1.78
2022-12-11T04:57:21.688Z,-1.79
2022-12-11T04:59:49.062Z,-1.78
2022-12-11T05:02:17.126Z,-1.79
2022-12-11T05:04:43.997Z,-1.80
2022-12-11T05:07:11.160Z,-1.81
2022-12-11T05:09:38.132Z,-1.80
2022-12-11T05:12:05.309Z,-1.80
2022-12-11T05:14:32.745Z,-1.80
2022-12-11T05:16:59.977Z,-1.77
2022-12-11T05:19:27.225Z,-1.77
2022-12-11T05:21:54.418Z,-1.77
2022-12-11T05:24:21.292Z,-1.78
2022-12-11T05:26:48.390Z,-1.77
2022-12-11T05:29:15.214Z,-1.77
2022-12-11T05:31:42.582Z,-1.79
2022-12-11T05:34:09.525Z,-1.78
2022-12-11T05:36:36.808Z,-1.77
2022-12-11T05:39:04.175Z,-1.78
2022-12-11T05:41:32.943Z,-1.77
2022-12-11T05:44:00.393Z,-1.78
2022-12-11T05:46:29.908Z,-1.76
2022-12-11T05:49:01.758Z,-1.77
2022-12-11T05:51:30.256Z,-1.77
2022-12-11T05:53:57.772Z,-1.77
2022-12-11T05:56:28.142Z,-1.81
2022-12-11T05:58:56.224Z,-1.80
2022-12-11T06:01:37.943Z,-1.81
2022-12-11T06:04:06.851Z,-1.82
2022-12-11T06:06:34.607Z,-1.83
2022-12-11T06:09:02.209Z,-1.84
2022-12-11T06:11:31.133Z,-1.83
2022-12-11T06:13:58.481Z,-1.81
2022-12-11T06:16:26.004Z,-1.84
2022-12-11T06:18:57.017Z,-1.83
2022-12-11T06:21:31.110Z,-1.84
2022-12-11T06:24:02.055Z,-1.82
2022-12-11T06:26:29.955Z,-1.84
2022-12-11T06:28:56.840Z,-1.85
2022-12-11T06:31:24.001Z,-1.86
2022-12-11T06:33:50.922Z,-1.87
2022-12-11T06:36:20.382Z,-1.88
2022-12-11T06:38:47.974Z,-1.88
2022-12-11T06:41:15.935Z,-1.86
2022-12-11T06:43:43.475Z,-1.86
2022-12-11T06:46:13.261Z,-1.87
2022-12-11T06:48:42.392Z,-1.85
2022-12-11T06:51:12.585Z,-1.86
2022-12-11T06:53:40.089Z,-1.85
2022-12-11T06:56:13.653Z,-1.84
2022-12-11T06:58:41.896Z,-1.83
2022-12-11T07:01:27.424Z,-1.81
2022-12-11T07:03:55.749Z,-1.79
2022-12-11T07:06:23.579Z,-1.80
2022-12-11T07:08:50.893Z,-1.78
2022-12-11T07:11:19.490Z,-1.78
2022-12-11T07:13:46.833Z,-1.76
2022-12-11T07:16:15.908Z,-1.76
2022-12-11T07:18:51.897Z,-1.72
2022-12-11T07:21:20.416Z,-1.71
2022-12-11T07:23:48.054Z,-1.70
2022-12-11T07:26:18.126Z,-1.67
2022-12-11T07:28:45.474Z,-1.63
2022-12-11T07:31:19.097Z,-1.60
2022-12-11T07:33:46.273Z,-1.59
2022-12-11T07:36:15.241Z,-1.58
2022-12-11T07:38:42.328Z,-1.56
2022-12-11T07:41:12.312Z,-1.54
2022-12-11T07:43:39.237Z,-1.51
2022-12-11T07:46:09.402Z,-1.51
2022-12-11T07:48:37.201Z,-1.52
2022-12-11T07:51:27.662Z,-1.51
2022-12-11T07:54:16.762Z,-1.49
2022-12-11T07:56:46.519Z,-1.48
2022-12-11T07:59:17.032Z,-1.44
2022-12-11T08:01:44.418Z,-1.39
2022-12-11T08:04:12.768Z,-1.38
2022-12-11T08:06:40.381Z,-1.36
2022-12-11T08:09:11.928Z,-1.36
2022-12-11T08:11:41.079Z,-1.37
2022-12-11T08:14:08.920Z,-1.34
2022-12-11T10:40:30.859Z,-0.50
2022-12-11T10:42:58.193Z,-0.64
2022-12-11T10:45:25.115Z,-0.83
2022-12-11T10:48:06.766Z,-0.94
2022-12-11T10:50:33.782Z,-1.03
2022-12-11T10:53:00.885Z,-1.01
2022-12-11T10:55:35.062Z,-1.05
2022-12-11T10:58:05.890Z,-1.09
2022-12-11T11:00:42.698Z,-1.14
2022-12-11T11:03:36.737Z,-1.12
2022-12-11T11:06:18.895Z,-1.05
2022-12-11T11:08:49.043Z,-1.00
2022-12-11T11:11:27.181Z,-1.00
2022-12-11T11:14:20.393Z,-1.02
2022-12-11T11:16:50.060Z,-1.05
2022-12-11T11:19:22.671Z,-1.00
2022-12-11T11:21:56.557Z,-1.01
2022-12-11T11:24:40.281Z,-1.09
2022-12-11T11:27:31.060Z,-1.12
2022-12-11T11:30:08.567Z,-1.13
2022-12-11T11:32:39.914Z,-1.05
2022-12-11T11:35:13.041Z,-0.96
2022-12-11T11:37:42.655Z,-0.93
2022-12-11T11:40:25.864Z,-0.88
2022-12-11T11:43:06.236Z,-0.75
2022-12-11T11:45:55.813Z,-0.73
2022-12-11T11:48:22.897Z,-0.75
2022-12-11T11:50:50.789Z,-0.80
2022-12-11T11:53:26.043Z,-0.90
2022-12-11T11:56:06.156Z,-1.00
2022-12-11T11:58:43.715Z,-1.07
2022-12-11T12:01:20.912Z,-1.13
2022-12-11T12:03:49.417Z,-1.17
2022-12-11T12:06:36.278Z,-1.25
2022-12-11T12:09:03.041Z,-1.27
2022-12-11T12:11:58.405Z,-1.26
2022-12-11T12:14:54.732Z,-1.15
2022-12-11T12:17:43.302Z,-1.10
2022-12-11T12:20:28.092Z,-1.12
2022-12-11T12:23:02.669Z,-1.08
2022-12-11T12:25:44.809Z,-1.19
2022-12-11T12:28:26.817Z,-1.30
2022-12-11T12:31:17.495Z,-1.37
2022-12-11T12:34:02.551Z,-1.38
2022-12-11T12:36:47.554Z,-1.46
2022-12-11T12:39:39.194Z,-1.45
2022-12-11T12:42:08.720Z,-1.48
2022-12-11T12:44:58.993Z,-1.57
2022-12-11T12:47:30.752Z,-1.68
2022-12-11T12:50:00.088Z,-1.77
2022-12-11T12:52:29.817Z,-1.87
2022-12-11T12:55:14.900Z,-1.90
2022-12-11T12:57:44.869Z,-2.00
2022-12-11T13:00:13.347Z,-2.01
2022-12-11T13:02:50.939Z,-2.01
2022-12-11T13:05:33.636Z,-2.01
2022-12-11T13:08:04.676Z,-2.04
2022-12-11T13:10:38.021Z,-2.11
2022-12-11T13:13:06.408Z,-2.16
2022-12-11T13:15:35.314Z,-2.12
2022-12-11T13:18:07.418Z,-2.13
2022-12-11T13:20:34.928Z,-2.16
2022-12-11T13:23:07.652Z,-2.15
2022-12-11T13:25:52.268Z,-2.14
2022-12-11T13:28:26.773Z,-2.19
2022-12-11T13:31:00.861Z,-2.28
2022-12-11T13:33:30.470Z,-2.34
2022-12-11T13:36:22.914Z,-2.38
2022-12-11T13:38:59.948Z,-2.42
2022-12-11T13:41:28.805Z,-2.42
2022-12-11T13:43:58.100Z,-2.44
2022-12-11T13:46:29.456Z,-2.43
2022-12-11T14:15:23.290Z,-2.30
2022-12-11T14:17:52.073Z,-2.40
2022-12-11T14:20:24.978Z,-2.54
2022-12-11T14:22:52.099Z,-2.61
2022-12-11T14:25:27.332Z,-2.72
2022-12-11T14:27:56.891Z,-2.77
2022-12-11T14:30:26.702Z,-2.86
2022-12-11T14:32:57.658Z,-2.88
2022-12-11T14:35:29.577Z,-2.92
2022-12-11T14:38:03.773Z,-2.93
2022-12-11T14:40:37.966Z,-2.97
2022-12-11T14:43:12.202Z,-2.96
2022-12-11T14:45:42.296Z,-2.94
2022-12-11T14:48:17.048Z,-2.93
2022-12-11T14:50:53.645Z,-2.97
2022-12-11T14:53:33.556Z,-3.01
2022-12-11T14:56:04.899Z,-3.00
2022-12-11T14:58:37.521Z,-3.01
2022-12-11T15:01:26.606Z,-3.03
2022-12-11T15:04:15.623Z,-3.02
2022-12-11T15:06:47.592Z,-3.05
2022-12-11T15:09:25.549Z,-3.06
2022-12-11T15:11:55.229Z,-3.10
2022-12-11T15:14:24.041Z,-3.14
2022-12-11T15:16:53.032Z,-3.15
2022-12-11T15:19:31.776Z,-3.16
2022-12-11T15:22:04.495Z,-3.13
2022-12-11T15:24:41.804Z,-3.16
2022-12-11T15:27:38.068Z,-3.15
2022-12-11T15:30:29.485Z,-3.19
2022-12-11T15:33:11.385Z,-3.22
2022-12-11T15:35:40.357Z,-3.24
2022-12-11T15:38:25.437Z,-3.22
2022-12-11T15:40:52.601Z,-3.22
2022-12-11T15:43:19.442Z,-3.21
2022-12-11T15:45:46.721Z,-3.21
2022-12-11T15:48:13.596Z,-3.26
2022-12-11T15:50:40.863Z,-3.25
2022-12-11T15:53:07.859Z,-3.26
2022-12-11T15:55:35.190Z,-3.26
2022-12-11T15:58:06.080Z,-3.25
2022-12-11T16:00:33.202Z,-3.25
2022-12-11T16:03:00.066Z,-3.25
2022-12-11T16:05:27.840Z,-3.27
2022-12-11T16:07:59.659Z,-3.26
2022-12-11T16:10:27.203Z,-3.26
2022-12-11T16:12:59.379Z,-3.27
2022-12-11T16:15:27.255Z,-3.26
2022-12-11T16:18:01.253Z,-3.28
2022-12-11T16:20:28.687Z,-3.28
2022-12-11T16:22:55.531Z,-3.30
2022-12-11T16:25:23.157Z,-3.30
2022-12-11T16:27:50.024Z,-3.31
2022-12-11T16:30:17.104Z,-3.31
2022-12-11T16:32:44.373Z,-3.31
2022-12-11T16:35:11.566Z,-3.28
2022-12-11T16:37:38.498Z,-3.26
2022-12-11T16:40:06.714Z,-3.26
2022-12-11T16:42:33.695Z,-3.26
2022-12-11T16:45:12.583Z,-3.26
2022-12-11T16:47:42.725Z,-3.26
2022-12-11T16:50:11.083Z,-3.23
2022-12-11T16:52:38.006Z,-3.28
2022-12-11T16:55:05.555Z,-3.29
2022-12-11T16:57:32.662Z,-3.30
2022-12-11T16:59:59.757Z,-3.28
2022-12-11T17:02:26.579Z,-3.26
2022-12-11T17:04:54.289Z,-3.26
2022-12-11T17:07:21.132Z,-3.25
2022-12-11T17:09:48.388Z,-3.25
2022-12-11T17:12:15.188Z,-3.26
2022-12-11T17:14:42.376Z,-3.23
2022-12-11T17:17:09.344Z,-3.21
2022-12-11T17:19:36.628Z,-3.24
2022-12-11T17:22:04.701Z,-3.25
2022-12-11T17:24:31.791Z,-3.23
2022-12-11T17:26:59.777Z,-3.23
2022-12-11T17:29:26.897Z,-3.22
2022-12-11T17:31:53.796Z,-3.20
2022-12-11T17:34:20.844Z,-3.20
2022-12-11T17:36:47.838Z,-3.27
2022-12-11T17:39:15.172Z,-3.27
2022-12-11T17:41:42.013Z,-3.30
2022-12-11T17:44:09.637Z,-3.30
2022-12-11T17:46:36.539Z,-3.30
2022-12-11T17:49:05.202Z,-3.34
2022-12-11T17:51:31.999Z,-3.37
2022-12-11T17:53:59.234Z,-3.35
2022-12-11T17:56:27.212Z,-3.30
2022-12-11T17:58:54.421Z,-3.32
2022-12-11T18:01:21.678Z,-3.35
2022-12-11T18:03:48.994Z,-3.38
2022-12-11T18:06:16.836Z,-3.40
2022-12-11T18:08:45.700Z,-3.40
2022-12-11T18:11:16.551Z,-3.41
2022-12-11T18:13:45.020Z,-3.43
2022-12-11T18:16:13.562Z,-3.43
2022-12-11T18:18:40.653Z,-3.43
2022-12-11T18:21:07.661Z,-3.47
2022-12-11T18:23:34.820Z,-3.46
2022-12-11T18:26:01.705Z,-3.45
2022-12-11T18:28:31.781Z,-3.43
2022-12-11T18:31:02.345Z,-3.42
2022-12-11T18:33:31.250Z,-3.41
2022-12-11T18:35:58.048Z,-3.40
2022-12-11T18:38:25.197Z,-3.43
2022-12-11T18:40:52.028Z,-3.43
2022-12-11T18:43:19.361Z,-3.39
2022-12-11T18:45:46.382Z,-3.40
2022-12-11T18:48:15.062Z,-3.40
2022-12-11T18:50:49.559Z,-3.39
2022-12-11T18:53:18.592Z,-3.37
2022-12-11T18:55:47.480Z,-3.37
2022-12-11T18:58:18.245Z,-3.39
2022-12-11T19:00:45.882Z,-3.43
2022-12-11T19:03:14.202Z,-3.44
2022-12-11T19:05:43.867Z,-3.45
2022-12-11T19:08:14.350Z,-3.47
2022-12-11T19:10:46.497Z,-3.44
2022-12-11T19:13:14.724Z,-3.43
2022-12-11T19:15:43.474Z,-3.43
2022-12-11T19:18:10.826Z,-3.45
2022-12-11T19:20:49.209Z,-3.46
2022-12-11T19:23:18.398Z,-3.46
2022-12-11T19:25:46.951Z,-3.45
2022-12-11T19:28:14.800Z,-3.45
2022-12-11T19:30:44.045Z,-3.47
2022-12-11T19:33:12.028Z,-3.47
2022-12-11T19:35:39.174Z,-3.46
2022-12-11T19:38:06.440Z,-3.45
2022-12-11T19:40:33.318Z,-3.44
2022-12-11T19:43:00.462Z,-3.44
2022-12-11T19:45:27.245Z,-3.44
2022-12-11T19:47:54.341Z,-3.45
2022-12-11T19:50:21.227Z,-3.45
2022-12-11T19:52:48.354Z,-3.45
2022-12-11T19:55:16.686Z,-3.44
2022-12-11T19:57:43.900Z,-3.44
2022-12-11T20:00:11.495Z,-3.41
2022-12-11T20:02:38.693Z,-3.40
2022-12-11T20:05:05.978Z,-3.38
2022-12-11T20:07:33.115Z,-3.40
2022-12-11T20:10:00.460Z,-3.38
2022-12-11T20:12:28.564Z,-3.35
2022-12-11T20:14:55.527Z,-3.35
2022-12-11T20:17:22.722Z,-3.33
2022-12-11T20:19:49.624Z,-3.36
2022-12-11T20:22:16.733Z,-3.36
2022-12-11T20:24:43.646Z,-3.39
2022-12-11T20:27:12.525Z,-3.36
2022-12-11T20:29:39.914Z,-3.36
2022-12-11T20:32:07.508Z,-3.38
2022-12-11T20:34:34.492Z,-3.33
2022-12-11T20:37:01.624Z,-3.34
2022-12-11T20:39:29.112Z,-3.36
2022-12-11T20:41:56.244Z,-3.33
2022-12-11T20:44:23.126Z,-3.37
2022-12-11T20:46:50.914Z,-3.42
2022-12-11T20:49:17.735Z,-3.45
2022-12-11T20:51:44.895Z,-3.44
2022-12-11T20:54:11.920Z,-3.46
2022-12-11T20:56:39.077Z,-3.46
2022-12-11T20:59:05.962Z,-3.45
2022-12-11T21:01:33.221Z,-3.46
2022-12-11T21:04:00.952Z,-3.49
2022-12-11T21:06:34.460Z,-3.47
2022-12-11T21:09:05.396Z,-3.47
2022-12-11T21:11:32.658Z,-3.46
2022-12-11T21:13:59.882Z,-3.46
2022-12-11T21:16:27.517Z,-3.44
2022-12-11T21:18:56.460Z,-3.39
2022-12-11T21:21:24.537Z,-3.40
2022-12-11T21:23:51.552Z,-3.36
2022-12-11T21:26:19.217Z,-3.37
2022-12-11T21:28:46.201Z,-3.41
2022-12-11T21:31:16.710Z,-3.36
2022-12-11T21:33:44.104Z,-3.35
2022-12-11T21:36:13.216Z,-3.35
2022-12-11T21:38:41.793Z,-3.39
2022-12-11T21:41:10.558Z,-3.40
2022-12-11T21:43:42.741Z,-3.38
2022-12-11T21:46:17.099Z,-3.39
2022-12-11T21:48:44.968Z,-3.38
2022-12-11T21:51:13.851Z,-3.41
2022-12-11T21:53:40.892Z,-3.40
2022-12-11T21:56:10.206Z,-3.41
2022-12-11T21:58:39.410Z,-3.43
2022-12-11T22:01:14.002Z,-3.44
2022-12-11T22:03:41.143Z,-3.46
2022-12-11T22:06:08.633Z,-3.44
2022-12-11T22:08:35.517Z,-3.42
2022-12-11T22:11:02.721Z,-3.44
2022-12-11T22:13:29.602Z,-3.45
2022-12-11T22:15:56.661Z,-3.45
2022-12-11T22:18:27.128Z,-3.45
2022-12-11T22:20:54.836Z,-3.48
2022-12-11T22:23:21.800Z,-3.48
2022-12-11T22:25:49.978Z,-3.50
2022-12-11T22:28:16.791Z,-3.51
2022-12-11T22:30:44.373Z,-3.50
2022-12-11T22:33:11.285Z,-3.50
2022-12-11T22:35:38.441Z,-3.51
2022-12-11T22:38:06.617Z,-3.50
2022-12-11T22:40:34.032Z,-3.49
2022-12-11T22:43:00.833Z,-3.47
2022-12-11T22:45:27.953Z,-3.47
2022-12-11T22:47:54.806Z,-3.48
2022-12-11T22:50:21.931Z,-3.44
2022-12-11T22:52:48.763Z,-3.47
2022-12-11T22:55:15.870Z,-3.46
2022-12-11T22:57:42.655Z,-3.45
2022-12-11T23:00:12.640Z,-3.48
2022-12-11T23:02:39.938Z,-3.49
2022-12-11T23:05:07.735Z,-3.50
2022-12-11T23:07:34.533Z,-3.48
2022-12-11T23:10:02.086Z,-3.49
2022-12-11T23:12:28.981Z,-3.50
2022-12-11T23:14:56.189Z,-3.56
2022-12-11T23:17:23.191Z,-3.53
2022-12-11T23:19:50.314Z,-3.53
2022-12-11T23:22:17.578Z,-3.56
2022-12-11T23:24:44.734Z,-3.58
2022-12-11T23:27:11.558Z,-3.57
2022-12-11T23:29:39.274Z,-3.57
2022-12-11T23:32:06.056Z,-3.57
2022-12-11T23:34:33.526Z,-3.59
2022-12-11T23:37:00.503Z,-3.57
2022-12-11T23:39:27.896Z,-3.58
2022-12-11T23:41:54.687Z,-3.55
2022-12-11T23:44:21.787Z,-3.53
2022-12-11T23:46:48.572Z,-3.57
2022-12-11T23:49:15.626Z,-3.58
2022-12-11T23:51:42.561Z,-3.57
2022-12-11T23:54:09.671Z,-3.55
2022-12-11T23:56:36.517Z,-3.56
2022-12-11T23:59:03.651Z,-3.55
